Time;durP1;ratioP1;P1;durP2;ratioP2;P2;SDS_P1;SDS_P2;PMS_P1;PMS_P2;Temp;Humidity;BMP_temperature;BMP_pressure;BME280_temperature;BME280_humidity;BME280_pressure;Samples;Min_cycle;Max_cycle;Signal;HPM_P1;HPM_P2
2024/04/13 00:00:21;;;;;;;7.95;3.65;;;;;;;;;;5523964;26;20161;-73
2024/04/13 00:02:47;;;;;;;8.88;3.60;;;;;;;;;;5524752;25;19993;-73
2024/04/13 00:05:13;;;;;;;7.65;3.67;;;;;;;;;;5527037;25;19997;-73
2024/04/13 00:07:40;;;;;;;6.35;4.60;;;;;;;;;;5524671;26;20004;-73
2024/04/13 00:10:06;;;;;;;5.97;4.05;;;;;;;;;;5524719;26;20008;-72
2024/04/13 00:12:32;;;;;;;6.35;3.80;;;;;;;;;;5524996;25;20431;-72
2024/04/13 00:14:58;;;;;;;10.40;3.72;;;;;;;;;;5525096;26;20009;-72
2024/04/13 00:17:24;;;;;;;9.95;4.15;;;;;;;;;;5524127;26;20335;-73
2024/04/13 00:19:50;;;;;;;6.38;3.97;;;;;;;;;;5524133;25;20004;-73
2024/04/13 00:22:17;;;;;;;8.10;4.13;;;;;;;;;;5522626;25;20408;-73
2024/04/13 00:24:43;;;;;;;9.43;4.55;;;;;;;;;;5525086;25;20009;-72
2024/04/13 00:27:09;;;;;;;8.32;4.18;;;;;;;;;;5521886;25;20001;-72
2024/04/13 00:29:37;;;;;;;5.65;3.80;;;;;;;;;;5524665;25;20005;-71
2024/04/13 00:32:03;;;;;;;7.72;5.00;;;;;;;;;;5524270;25;20007;-72
2024/04/13 00:34:29;;;;;;;6.13;3.90;;;;;;;;;;5522598;25;20001;-73
2024/04/13 00:36:55;;;;;;;14.07;4.43;;;;;;;;;;5521859;25;20032;-72
2024/04/13 00:39:21;;;;;;;5.18;3.75;;;;;;;;;;5527605;25;20049;-73
2024/04/13 00:41:48;;;;;;;7.22;4.00;;;;;;;;;;5522501;26;20011;-71
2024/04/13 00:44:14;;;;;;;9.05;3.97;;;;;;;;;;5525760;25;19993;-72
2024/04/13 00:46:42;;;;;;;7.50;4.07;;;;;;;;;;5524842;26;20325;-72
2024/04/13 00:49:10;;;;;;;6.53;3.92;;;;;;;;;;5525623;25;20113;-72
2024/04/13 00:51:36;;;;;;;7.50;4.22;;;;;;;;;;5525271;25;20069;-71
2024/04/13 00:54:03;;;;;;;9.60;4.32;;;;;;;;;;5523721;26;20000;-73
2024/04/13 00:56:29;;;;;;;8.05;4.10;;;;;;;;;;5524590;25;20029;-72
2024/04/13 00:58:56;;;;;;;6.30;4.20;;;;;;;;;;5523795;26;20001;-72
2024/04/13 01:01:24;;;;;;;8.45;4.18;;;;;;;;;;5522999;25;19998;-72
2024/04/13 01:03:51;;;;;;;8.90;3.65;;;;;;;;;;5522874;26;20037;-72
2024/04/13 01:06:17;;;;;;;8.40;4.47;;;;;;;;;;5525303;25;20026;-71
2024/04/13 01:08:43;;;;;;;6.45;4.15;;;;;;;;;;5525670;25;20093;-72
2024/04/13 01:11:11;;;;;;;4.82;3.55;;;;;;;;;;5525081;25;20023;-72
2024/04/13 01:13:38;;;;;;;6.97;4.43;;;;;;;;;;5524094;25;20421;-72
2024/04/13 01:16:05;;;;;;;6.03;4.05;;;;;;;;;;5524435;25;20001;-72
2024/04/13 01:18:31;;;;;;;8.98;3.90;;;;;;;;;;5525061;25;19998;-72
2024/04/13 01:20:58;;;;;;;7.95;4.65;;;;;;;;;;5504677;26;20006;-71
2024/04/13 01:23:24;;;;;;;10.20;4.35;;;;;;;;;;5487594;26;20006;-72
2024/04/13 01:25:50;;;;;;;6.97;3.97;;;;;;;;;;5487564;26;19998;-72
2024/04/13 01:28:17;;;;;;;9.55;5.45;;;;;;;;;;5520036;26;20001;-71
2024/04/13 01:30:43;;;;;;;6.80;4.55;;;;;;;;;;5524239;25;20305;-71
2024/04/13 01:33:09;;;;;;;7.97;4.57;;;;;;;;;;5524502;25;20336;-70
2024/04/13 01:35:35;;;;;;;8.80;4.50;;;;;;;;;;5522053;25;20111;-71
2024/04/13 01:38:01;;;;;;;9.77;4.93;;;;;;;;;;5519220;25;20021;-73
2024/04/13 01:40:27;;;;;;;8.10;4.45;;;;;;;;;;5522746;25;20005;-71
2024/04/13 01:42:53;;;;;;;6.13;4.80;;;;;;;;;;5524413;25;20001;-73
2024/04/13 01:45:19;;;;;;;7.63;4.00;;;;;;;;;;5524764;25;20009;-71
2024/04/13 01:47:45;;;;;;;5.57;4.28;;;;;;;;;;5522507;25;19994;-71
2024/04/13 01:50:12;;;;;;;13.82;4.93;;;;;;;;;;5523591;26;19998;-72
2024/04/13 01:52:38;;;;;;;9.65;4.72;;;;;;;;;;5522145;26;20342;-72
2024/04/13 01:55:04;;;;;;;11.15;4.50;;;;;;;;;;5524514;25;20399;-72
2024/04/13 01:57:32;;;;;;;8.20;5.15;;;;;;;;;;5526868;26;19997;-72
2024/04/13 01:59:58;;;;;;;7.47;4.72;;;;;;;;;;5527462;25;20357;-72
2024/04/13 02:02:24;;;;;;;9.40;4.75;;;;;;;;;;5525978;25;19993;-71
2024/04/13 02:04:50;;;;;;;5.70;4.53;;;;;;;;;;5523179;26;19993;-70
2024/04/13 02:07:16;;;;;;;11.00;6.03;;;;;;;;;;5521883;26;20009;-71
2024/04/13 02:09:42;;;;;;;8.05;4.68;;;;;;;;;;5521811;25;20005;-71
2024/04/13 02:12:08;;;;;;;8.77;5.45;;;;;;;;;;5522763;26;20008;-71
2024/04/13 02:14:34;;;;;;;8.15;4.57;;;;;;;;;;5521470;25;20069;-71
2024/04/13 02:17:01;;;;;;;7.90;5.30;;;;;;;;;;5524186;26;20027;-71
2024/04/13 02:19:27;;;;;;;9.38;5.07;;;;;;;;;;5523978;25;19997;-71
2024/04/13 02:21:53;;;;;;;8.18;4.75;;;;;;;;;;5523034;26;20459;-72
2024/04/13 02:24:20;;;;;;;8.63;5.22;;;;;;;;;;5523501;25;20001;-72
2024/04/13 02:26:46;;;;;;;7.88;4.72;;;;;;;;;;5523571;25;20446;-71
2024/04/13 02:29:12;;;;;;;8.45;5.38;;;;;;;;;;5523992;25;20009;-71
2024/04/13 02:31:38;;;;;;;11.10;4.80;;;;;;;;;;5523171;25;19994;-72
2024/04/13 02:34:04;;;;;;;6.88;5.18;;;;;;;;;;5522092;25;19997;-71
2024/04/13 02:36:30;;;;;;;8.25;4.63;;;;;;;;;;5524425;25;19994;-72
2024/04/13 02:38:56;;;;;;;5.75;5.15;;;;;;;;;;5525620;25;19994;-72
2024/04/13 02:41:22;;;;;;;8.13;5.57;;;;;;;;;;5521808;26;19993;-72
2024/04/13 02:43:48;;;;;;;10.57;5.90;;;;;;;;;;5521056;25;20340;-72
2024/04/13 02:46:16;;;;;;;10.23;4.85;;;;;;;;;;5523964;26;20069;-71
2024/04/13 02:48:43;;;;;;;10.40;5.55;;;;;;;;;;5524015;26;20004;-71
2024/04/13 02:51:10;;;;;;;9.95;5.45;;;;;;;;;;5484824;26;20059;-72
2024/04/13 02:53:39;;;;;;;8.65;5.40;;;;;;;;;;5484992;26;19997;-72
2024/04/13 02:56:05;;;;;;;7.35;5.25;;;;;;;;;;5485373;26;20010;-72
2024/04/13 02:58:32;;;;;;;6.43;4.75;;;;;;;;;;5504493;25;20002;-72
2024/04/13 03:00:59;;;;;;;6.63;4.93;;;;;;;;;;5522224;25;20007;-73
2024/04/13 03:03:25;;;;;;;6.72;5.15;;;;;;;;;;5522938;26;20005;-73
2024/04/13 03:06:21;;;;;;;9.07;6.07;;;;;;;;;;5521725;26;20532;-72
2024/04/13 03:08:50;;;;;;;8.98;5.72;;;;;;;;;;5507405;25;20003;-72
2024/04/13 03:11:17;;;;;;;7.10;5.53;;;;;;;;;;5523264;25;20349;-72
2024/04/13 03:13:45;;;;;;;9.98;5.68;;;;;;;;;;5522039;25;20448;-73
2024/04/13 03:16:12;;;;;;;11.65;5.70;;;;;;;;;;5522747;25;20077;-73
2024/04/13 03:18:39;;;;;;;9.45;5.18;;;;;;;;;;5522936;25;20002;-71
2024/04/13 03:21:08;;;;;;;7.43;5.32;;;;;;;;;;5522691;25;20343;-72
2024/04/13 03:23:34;;;;;;;7.78;5.43;;;;;;;;;;5520789;26;19997;-73
2024/04/13 03:26:00;;;;;;;6.38;5.22;;;;;;;;;;5523231;25;20349;-72
2024/04/13 03:28:30;;;;;;;8.57;5.05;;;;;;;;;;5522362;25;20451;-72
2024/04/13 03:30:56;;;;;;;9.75;5.82;;;;;;;;;;5520829;26;20629;-72
2024/04/13 03:33:23;;;;;;;10.18;5.22;;;;;;;;;;5522621;25;20443;-72
2024/04/13 03:35:49;;;;;;;7.60;5.38;;;;;;;;;;5520830;26;19997;-72
2024/04/13 03:38:16;;;;;;;6.50;5.38;;;;;;;;;;5520407;25;20049;-71
2024/04/13 03:40:44;;;;;;;5.10;4.32;;;;;;;;;;5521153;26;20005;-71
2024/04/13 03:43:11;;;;;;;7.80;4.55;;;;;;;;;;5522129;25;20082;-73
2024/04/13 03:45:37;;;;;;;6.68;4.65;;;;;;;;;;5521011;25;20115;-73
2024/04/13 03:48:03;;;;;;;9.07;5.00;;;;;;;;;;5523478;25;20002;-72
2024/04/13 03:50:29;;;;;;;11.30;5.00;;;;;;;;;;5521639;26;20105;-72
2024/04/13 03:52:57;;;;;;;6.80;5.18;;;;;;;;;;5522445;25;20005;-72
2024/04/13 03:55:23;;;;;;;9.88;5.80;;;;;;;;;;5521059;26;20008;-72
2024/04/13 03:57:49;;;;;;;10.30;4.93;;;;;;;;;;5522653;25;20065;-71
2024/04/13 04:00:16;;;;;;;10.20;4.90;;;;;;;;;;5521976;25;20077;-72
2024/04/13 04:02:42;;;;;;;6.50;4.80;;;;;;;;;;5520217;26;20004;-72
2024/04/13 04:05:08;;;;;;;8.57;5.20;;;;;;;;;;5520723;25;20009;-72
2024/04/13 04:07:34;;;;;;;8.15;5.28;;;;;;;;;;5520244;26;20013;-72
2024/04/13 04:10:00;;;;;;;6.85;4.88;;;;;;;;;;5520425;25;20085;-74
2024/04/13 04:12:26;;;;;;;8.60;4.97;;;;;;;;;;5522919;25;19997;-72
2024/04/13 04:14:53;;;;;;;7.13;4.47;;;;;;;;;;5523704;25;20005;-72
2024/04/13 04:17:19;;;;;;;9.65;5.15;;;;;;;;;;5526639;25;20444;-72
2024/04/13 04:19:45;;;;;;;9.98;4.95;;;;;;;;;;5524489;25;19994;-73
2024/04/13 04:22:11;;;;;;;6.20;4.70;;;;;;;;;;5523465;26;20028;-72
2024/04/13 04:24:38;;;;;;;10.38;5.45;;;;;;;;;;5525629;25;20354;-72
2024/04/13 04:27:05;;;;;;;12.60;4.65;;;;;;;;;;5525922;25;20108;-72
2024/04/13 04:29:31;;;;;;;9.68;5.30;;;;;;;;;;5525251;25;20414;-72
2024/04/13 04:31:57;;;;;;;7.50;5.20;;;;;;;;;;5525428;26;19993;-73
2024/04/13 04:34:23;;;;;;;6.60;4.57;;;;;;;;;;5525559;26;20004;-72
2024/04/13 04:36:51;;;;;;;8.40;5.35;;;;;;;;;;5525801;26;20005;-72
2024/04/13 04:39:17;;;;;;;7.07;4.72;;;;;;;;;;5524927;25;20003;-73
2024/04/13 04:41:43;;;;;;;8.55;5.50;;;;;;;;;;5527535;25;19997;-73
2024/04/13 04:44:10;;;;;;;12.25;5.00;;;;;;;;;;5529002;25;20002;-72
2024/04/13 04:46:36;;;;;;;10.40;5.45;;;;;;;;;;5525178;25;19993;-72
2024/04/13 04:49:04;;;;;;;7.95;5.05;;;;;;;;;;5526496;25;19998;-72
2024/04/13 04:51:30;;;;;;;9.30;5.68;;;;;;;;;;5524036;26;19990;-72
2024/04/13 04:53:56;;;;;;;11.00;5.78;;;;;;;;;;5523509;25;20001;-72
2024/04/13 04:56:23;;;;;;;7.47;5.10;;;;;;;;;;5523783;25;19994;-72
2024/04/13 04:58:51;;;;;;;7.57;5.65;;;;;;;;;;5525530;25;20013;-72
2024/04/13 05:01:17;;;;;;;8.48;5.63;;;;;;;;;;5526004;25;20324;-72
2024/04/13 05:03:43;;;;;;;7.97;5.43;;;;;;;;;;5526010;25;20010;-72
2024/04/13 05:06:09;;;;;;;8.65;6.00;;;;;;;;;;5526216;25;19993;-73
2024/04/13 05:08:35;;;;;;;6.40;5.32;;;;;;;;;;5526270;26;19994;-73
2024/04/13 05:11:01;;;;;;;7.07;5.93;;;;;;;;;;5527041;25;20009;-73
2024/04/13 05:13:29;;;;;;;10.75;5.30;;;;;;;;;;5526272;26;20020;-74
2024/04/13 05:15:56;;;;;;;8.18;5.35;;;;;;;;;;5526208;25;20001;-73
2024/04/13 05:18:22;;;;;;;9.30;4.75;;;;;;;;;;5506380;25;19998;-72
2024/04/13 05:20:48;;;;;;;7.05;5.65;;;;;;;;;;5487925;26;19994;-73
2024/04/13 05:23:14;;;;;;;9.48;5.70;;;;;;;;;;5485685;26;20066;-72
2024/04/13 05:25:43;;;;;;;7.05;5.30;;;;;;;;;;5487025;26;20344;-72
2024/04/13 05:28:09;;;;;;;9.63;6.30;;;;;;;;;;5487899;26;20348;-72
2024/04/13 05:30:38;;;;;;;8.60;5.78;;;;;;;;;;5521068;26;20012;-72
2024/04/13 05:33:04;;;;;;;10.40;6.22;;;;;;;;;;5522103;26;20009;-73
2024/04/13 05:35:30;;;;;;;9.65;5.85;;;;;;;;;;5522072;26;19998;-71
2024/04/13 05:37:56;;;;;;;9.27;5.97;;;;;;;;;;5523094;25;19994;-72
2024/04/13 05:40:25;;;;;;;14.32;6.00;;;;;;;;;;5522812;25;20454;-73
2024/04/13 05:42:51;;;;;;;6.18;5.55;;;;;;;;;;5523616;25;20002;-72
2024/04/13 05:45:17;;;;;;;7.70;5.68;;;;;;;;;;5524376;25;20463;-72
2024/04/13 05:47:43;;;;;;;7.22;5.72;;;;;;;;;;5522862;25;20118;-72
2024/04/13 05:50:10;;;;;;;7.60;5.32;;;;;;;;;;5524525;25;19997;-73
2024/04/13 05:52:36;;;;;;;9.35;6.10;;;;;;;;;;5524431;25;20014;-71
2024/04/13 05:55:02;;;;;;;8.20;6.22;;;;;;;;;;5522704;25;20005;-72
2024/04/13 05:57:29;;;;;;;9.52;6.03;;;;;;;;;;5522838;26;20064;-71
2024/04/13 05:59:55;;;;;;;10.85;6.00;;;;;;;;;;5522452;25;20068;-72
2024/04/13 06:02:25;;;;;;;10.05;7.28;;;;;;;;;;5523256;25;20009;-73
2024/04/13 06:04:51;;;;;;;13.00;7.33;;;;;;;;;;5523809;25;19993;-72
2024/04/13 06:07:17;;;;;;;8.27;6.20;;;;;;;;;;5521751;26;20261;-72
2024/04/13 06:09:44;;;;;;;12.65;7.05;;;;;;;;;;5526306;25;20533;-72
2024/04/13 06:12:10;;;;;;;10.00;6.45;;;;;;;;;;5521991;26;19993;-72
2024/04/13 06:14:39;;;;;;;9.60;5.95;;;;;;;;;;5522141;26;20001;-73
2024/04/13 06:17:05;;;;;;;15.07;7.15;;;;;;;;;;5524967;25;20416;-73
2024/04/13 06:19:31;;;;;;;8.93;6.70;;;;;;;;;;5525335;25;20074;-74
2024/04/13 06:21:58;;;;;;;15.45;6.75;;;;;;;;;;5523847;25;20071;-73
2024/04/13 06:24:24;;;;;;;12.70;5.97;;;;;;;;;;5522671;26;20093;-74
2024/04/13 06:26:50;;;;;;;21.25;7.25;;;;;;;;;;5521738;26;20012;-72
2024/04/13 06:29:16;;;;;;;9.75;4.65;;;;;;;;;;5519110;26;20017;-66
2024/04/13 06:31:42;;;;;;;11.60;6.82;;;;;;;;;;5522494;26;20001;-73
2024/04/13 06:34:09;;;;;;;9.27;6.75;;;;;;;;;;5522930;26;20345;-73
2024/04/13 06:36:35;;;;;;;11.23;6.90;;;;;;;;;;5523910;25;20045;-72
2024/04/13 06:39:01;;;;;;;13.85;7.78;;;;;;;;;;5525560;25;19997;-72
2024/04/13 06:41:27;;;;;;;13.20;7.15;;;;;;;;;;5523611;26;19993;-74
2024/04/13 06:43:55;;;;;;;13.65;7.05;;;;;;;;;;5523849;25;19997;-73
2024/04/13 06:46:21;;;;;;;9.95;7.40;;;;;;;;;;5522801;25;20004;-73
2024/04/13 06:48:47;;;;;;;15.48;7.60;;;;;;;;;;5523148;25;19998;-73
2024/04/13 06:51:13;;;;;;;13.98;7.97;;;;;;;;;;5521823;25;20007;-75
2024/04/13 06:53:39;;;;;;;15.18;8.13;;;;;;;;;;5522633;26;19997;-74
2024/04/13 06:56:05;;;;;;;16.83;8.80;;;;;;;;;;5521775;25;20025;-72
2024/04/13 06:58:32;;;;;;;14.35;8.52;;;;;;;;;;5523717;25;20474;-74
2024/04/13 07:00:58;;;;;;;13.02;6.53;;;;;;;;;;5525119;25;20377;-68
2024/04/13 07:03:25;;;;;;;13.55;8.73;;;;;;;;;;5524388;25;20339;-73
2024/04/13 07:05:54;;;;;;;13.02;7.70;;;;;;;;;;5524946;25;20001;-73
2024/04/13 07:08:21;;;;;;;11.13;8.02;;;;;;;;;;5522315;26;20452;-74
2024/04/13 07:10:47;;;;;;;10.25;5.95;;;;;;;;;;5523436;25;19992;-74
2024/04/13 07:13:13;;;;;;;11.00;6.53;;;;;;;;;;5525803;25;20415;-73
2024/04/13 07:15:39;;;;;;;11.95;5.93;;;;;;;;;;5536088;25;19997;-73
2024/04/13 07:18:08;;;;;;;13.10;6.57;;;;;;;;;;5540663;25;19998;-74
2024/04/13 07:20:34;;;;;;;10.20;5.38;;;;;;;;;;5546421;25;20016;-73
2024/04/13 07:23:00;;;;;;;8.23;5.53;;;;;;;;;;5526903;25;20002;-75
2024/04/13 07:25:26;;;;;;;11.02;6.20;;;;;;;;;;5528867;25;20073;-75
2024/04/13 07:27:52;;;;;;;9.73;5.80;;;;;;;;;;5547256;25;20000;-73
2024/04/13 07:30:18;;;;;;;8.80;5.22;;;;;;;;;;5523341;25;20008;-72
2024/04/13 07:32:44;;;;;;;8.60;5.55;;;;;;;;;;5529698;25;20007;-74
2024/04/13 07:35:10;;;;;;;7.55;4.72;;;;;;;;;;5560790;25;19993;-73
2024/04/13 07:37:36;;;;;;;6.63;4.55;;;;;;;;;;5525572;25;20001;-73
2024/04/13 07:40:02;;;;;;;7.55;4.60;;;;;;;;;;5535916;25;20006;-74
2024/04/13 07:42:28;;;;;;;9.27;4.72;;;;;;;;;;5540561;25;20033;-72
2024/04/13 07:44:54;;;;;;;6.38;4.00;;;;;;;;;;5526916;25;20470;-78
2024/04/13 07:47:20;;;;;;;10.50;3.95;;;;;;;;;;5520551;26;20001;-73
2024/04/13 07:49:46;;;;;;;6.32;4.47;;;;;;;;;;5527301;25;20001;-73
2024/04/13 07:52:12;;;;;;;8.15;4.53;;;;;;;;;;5528274;25;20009;-73
2024/04/13 07:54:38;;;;;;;11.02;5.25;;;;;;;;;;5524426;25;19997;-73
2024/04/13 07:57:04;;;;;;;5.15;3.63;;;;;;;;;;5524760;25;20098;-74
2024/04/13 07:59:30;;;;;;;8.38;4.40;;;;;;;;;;5525907;25;20033;-73
2024/04/13 08:01:56;;;;;;;6.70;3.90;;;;;;;;;;5525153;25;20074;-66
2024/04/13 08:04:22;;;;;;;13.63;3.20;;;;;;;;;;5523654;26;20008;-66
2024/04/13 08:06:48;;;;;;;9.00;3.53;;;;;;;;;;5525568;26;20005;-69
2024/04/13 08:09:14;;;;;;;4.75;3.35;;;;;;;;;;5521531;25;20058;-66
2024/04/13 08:11:40;;;;;;;7.20;3.88;;;;;;;;;;5520916;26;20358;-66
2024/04/13 08:14:08;;;;;;;7.70;3.47;;;;;;;;;;5528193;26;20460;-65
2024/04/13 08:16:34;;;;;;;7.18;2.88;;;;;;;;;;5525556;25;20012;-66
2024/04/13 08:19:00;;;;;;;8.35;3.45;;;;;;;;;;5527592;25;19997;-66
2024/04/13 08:21:26;;;;;;;8.10;3.15;;;;;;;;;;5526540;25;20001;-67
2024/04/13 08:23:52;;;;;;;7.70;3.72;;;;;;;;;;5526584;26;20433;-66
2024/04/13 08:26:18;;;;;;;4.90;3.17;;;;;;;;;;5526413;25;19997;-66
2024/04/13 08:28:44;;;;;;;8.68;3.10;;;;;;;;;;5525771;25;19998;-67
2024/04/13 08:31:10;;;;;;;6.20;3.40;;;;;;;;;;5525315;25;20408;-67
2024/04/13 08:33:36;;;;;;;7.18;3.33;;;;;;;;;;5523376;26;19997;-75
2024/04/13 08:36:03;;;;;;;3.78;2.97;;;;;;;;;;5507799;26;20008;-74
2024/04/13 08:38:29;;;;;;;5.95;2.80;;;;;;;;;;5523264;25;20034;-74
2024/04/13 08:40:56;;;;;;;7.05;2.85;;;;;;;;;;5525852;25;19997;-68
2024/04/13 08:43:22;;;;;;;10.10;3.25;;;;;;;;;;5524674;25;20316;-69
2024/04/13 08:45:49;;;;;;;10.35;3.50;;;;;;;;;;5523746;25;19997;-68
2024/04/13 08:48:16;;;;;;;117.22;13.93;;;;;;;;;;5525632;25;20009;-72
2024/04/13 08:50:42;;;;;;;18.73;4.78;;;;;;;;;;5523734;25;20011;-69
2024/04/13 08:53:08;;;;;;;6.85;3.63;;;;;;;;;;5524301;25;20016;-70
2024/04/13 08:55:34;;;;;;;6.80;3.30;;;;;;;;;;5498410;26;20474;-75
2024/04/13 08:58:03;;;;;;;14.48;3.60;;;;;;;;;;5516214;25;20004;-74
2024/04/13 09:00:31;;;;;;;10.85;3.42;;;;;;;;;;5525231;26;20017;-76
2024/04/13 09:02:57;;;;;;;4.15;3.22;;;;;;;;;;5522556;26;19997;-76
2024/04/13 09:05:26;;;;;;;8.02;3.42;;;;;;;;;;5523919;25;20004;-73
2024/04/13 09:07:53;;;;;;;7.82;3.50;;;;;;;;;;5522201;25;19997;-73
2024/04/13 09:10:19;;;;;;;5.53;3.30;;;;;;;;;;5523553;25;20093;-74
2024/04/13 09:12:45;;;;;;;4.95;2.97;;;;;;;;;;5524162;25;19998;-74
2024/04/13 09:15:12;;;;;;;9.30;2.92;;;;;;;;;;5526425;25;20033;-76
2024/04/13 09:17:38;;;;;;;6.28;3.47;;;;;;;;;;5526361;25;20013;-67
2024/04/13 09:20:09;;;;;;;6.38;2.80;;;;;;;;;;5525123;25;19993;-68
2024/04/13 09:22:36;;;;;;;6.27;2.83;;;;;;;;;;5522693;26;20030;-75
2024/04/13 09:25:02;;;;;;;5.35;2.92;;;;;;;;;;5487881;26;20287;-74
2024/04/13 09:27:30;;;;;;;6.10;3.10;;;;;;;;;;5524895;25;20312;-74
2024/04/13 09:30:08;;;;;;;8.68;3.17;;;;;;;;;;5526260;25;20007;-74
2024/04/13 09:32:35;;;;;;;5.82;3.65;;;;;;;;;;5487648;26;20062;-75
2024/04/13 09:35:12;;;;;;;8.00;3.60;;;;;;;;;;5489152;26;20006;-74
2024/04/13 09:37:38;;;;;;;5.20;3.25;;;;;;;;;;5490244;26;19994;-75
2024/04/13 09:40:05;;;;;;;5.68;3.25;;;;;;;;;;5524812;26;20127;-74
2024/04/13 09:42:32;;;;;;;9.68;4.40;;;;;;;;;;5525485;25;20328;-74
2024/04/13 09:45:04;;;;;;;5.13;2.90;;;;;;;;;;5525919;25;19998;-73
2024/04/13 09:47:30;;;;;;;5.18;3.33;;;;;;;;;;5525754;25;20330;-75
2024/04/13 09:49:56;;;;;;;6.65;3.10;;;;;;;;;;5525942;25;20460;-74
2024/04/13 09:52:23;;;;;;;7.30;3.70;;;;;;;;;;5523322;26;20410;-75
2024/04/13 09:54:49;;;;;;;7.30;3.13;;;;;;;;;;5524963;25;20351;-75
2024/04/13 09:57:15;;;;;;;5.20;2.72;;;;;;;;;;5528982;25;19994;-75
2024/04/13 09:59:42;;;;;;;5.72;2.75;;;;;;;;;;5531401;25;20001;-76
2024/04/13 10:02:10;;;;;;;6.00;2.75;;;;;;;;;;5528415;25;20072;-74
2024/04/13 10:04:36;;;;;;;3.80;2.78;;;;;;;;;;5517410;26;19998;-75
2024/04/13 10:07:04;;;;;;;8.45;2.50;;;;;;;;;;5511954;25;20009;-75
2024/04/13 10:09:31;;;;;;;4.82;3.00;;;;;;;;;;5489782;26;20005;-75
2024/04/13 10:11:58;;;;;;;5.55;3.13;;;;;;;;;;5488814;26;20004;-74
2024/04/13 10:14:25;;;;;;;7.57;2.92;;;;;;;;;;5490161;26;20010;-75
2024/04/13 10:16:53;;;;;;;7.22;2.40;;;;;;;;;;5517459;25;20013;-75
2024/04/13 10:19:19;;;;;;;5.35;2.70;;;;;;;;;;5529657;25;20005;-75
2024/04/13 10:22:01;;;;;;;6.47;2.45;;;;;;;;;;5519786;25;19997;-74
2024/04/13 10:24:31;;;;;;;5.22;2.83;;;;;;;;;;5523244;25;20013;-75
2024/04/13 10:27:10;;;;;;;5.75;2.85;;;;;;;;;;5500151;26;20009;-75
2024/04/13 10:29:40;;;;;;;6.82;2.80;;;;;;;;;;5531134;25;20002;-75
2024/04/13 10:32:24;;;;;;;10.90;2.93;;;;;;;;;;5496076;25;20042;-75
2024/04/13 10:34:51;;;;;;;6.05;2.60;;;;;;;;;;5492172;26;20006;-75
2024/04/13 10:37:27;;;;;;;4.45;2.92;;;;;;;;;;5524193;26;20001;-76
2024/04/13 10:39:56;;;;;;;5.80;2.35;;;;;;;;;;5524132;25;20142;-74
2024/04/13 10:42:39;;;;;;;6.32;2.90;;;;;;;;;;5526808;25;20008;-76
2024/04/13 10:45:09;;;;;;;3.97;3.42;;;;;;;;;;5530294;25;20013;-75
2024/04/13 10:47:37;;;;;;;6.25;2.90;;;;;;;;;;5529663;25;20006;-74
2024/04/13 10:50:04;;;;;;;6.72;2.97;;;;;;;;;;5534275;25;20007;-76
2024/04/13 10:52:30;;;;;;;7.20;2.33;;;;;;;;;;5533995;25;20019;-76
2024/04/13 10:54:56;;;;;;;4.90;2.97;;;;;;;;;;5532834;25;19998;-75
2024/04/13 10:57:23;;;;;;;6.35;3.80;;;;;;;;;;5514698;26;19998;-76
2024/04/13 10:59:49;;;;;;;5.65;2.35;;;;;;;;;;5494574;26;20002;-76
2024/04/13 11:02:15;;;;;;;5.43;2.50;;;;;;;;;;5522297;26;20017;-75
2024/04/13 11:04:45;;;;;;;5.28;2.33;;;;;;;;;;5521294;26;20113;-75
2024/04/13 11:07:12;;;;;;;6.53;2.38;;;;;;;;;;5532066;25;20002;-76
2024/04/13 11:09:39;;;;;;;11.00;3.03;;;;;;;;;;5531944;25;20034;-75
2024/04/13 11:12:08;;;;;;;7.75;3.00;;;;;;;;;;5529356;26;19993;-75
2024/04/13 11:14:34;;;;;;;5.32;2.63;;;;;;;;;;5532025;25;20008;-75
2024/04/13 11:17:00;;;;;;;9.65;2.60;;;;;;;;;;5528977;26;19997;-75
2024/04/13 11:19:26;;;;;;;16.40;2.60;;;;;;;;;;5529866;25;20005;-76
2024/04/13 11:21:53;;;;;;;3.33;2.10;;;;;;;;;;5527099;26;20005;-75
2024/04/13 11:24:19;;;;;;;5.53;2.30;;;;;;;;;;5528531;25;20308;-74
2024/04/13 11:26:46;;;;;;;7.85;2.95;;;;;;;;;;5526889;26;20008;-74
2024/04/13 11:29:12;;;;;;;7.00;3.42;;;;;;;;;;5525934;26;20458;-75
2024/04/13 11:31:38;;;;;;;6.50;2.50;;;;;;;;;;5523094;26;20004;-75
2024/04/13 11:34:04;;;;;;;5.43;2.22;;;;;;;;;;5529394;26;20042;-75
2024/04/13 11:36:31;;;;;;;6.38;2.67;;;;;;;;;;5528499;25;20005;-76
2024/04/13 11:38:57;;;;;;;6.85;2.35;;;;;;;;;;5527099;26;19994;-75
2024/04/13 11:41:23;;;;;;;4.88;1.70;;;;;;;;;;5528289;25;20038;-75
2024/04/13 11:43:56;;;;;;;4.32;2.58;;;;;;;;;;5527434;25;19993;-76
2024/04/13 11:46:22;;;;;;;11.63;2.67;;;;;;;;;;5531256;26;20004;-75
2024/04/13 11:48:48;;;;;;;3.85;2.20;;;;;;;;;;5529977;26;20012;-75
2024/04/13 11:51:14;;;;;;;6.72;1.83;;;;;;;;;;5530022;25;20010;-75
2024/04/13 11:53:41;;;;;;;3.45;1.95;;;;;;;;;;5531956;26;19997;-76
2024/04/13 11:56:10;;;;;;;7.45;1.98;;;;;;;;;;5518444;26;20002;-76
2024/04/13 11:58:36;;;;;;;3.90;2.00;;;;;;;;;;5530958;26;20101;-77
2024/04/13 12:01:02;;;;;;;3.85;1.90;;;;;;;;;;5526785;26;20001;-76
2024/04/13 12:03:28;;;;;;;4.32;1.88;;;;;;;;;;5526081;25;20026;-75
2024/04/13 12:05:54;;;;;;;1.73;1.60;;;;;;;;;;5524030;25;20001;-75
2024/04/13 12:08:21;;;;;;;3.00;1.65;;;;;;;;;;5524352;25;20317;-75
2024/04/13 12:10:47;;;;;;;4.65;2.90;;;;;;;;;;5524211;25;19998;-75
2024/04/13 12:13:13;;;;;;;4.53;1.80;;;;;;;;;;5524035;26;20073;-74
2024/04/13 12:15:39;;;;;;;9.25;2.50;;;;;;;;;;5524727;25;19997;-74
2024/04/13 12:18:05;;;;;;;4.05;2.17;;;;;;;;;;5496266;25;20432;-75
2024/04/13 12:20:32;;;;;;;3.50;1.77;;;;;;;;;;5505305;26;20014;-76
2024/04/13 12:22:58;;;;;;;4.57;2.22;;;;;;;;;;5503080;26;20001;-76
2024/04/13 12:25:24;;;;;;;6.15;2.13;;;;;;;;;;5522737;26;20080;-74
2024/04/13 12:27:50;;;;;;;4.40;2.00;;;;;;;;;;5524632;25;20426;-76
2024/04/13 12:30:17;;;;;;;4.50;2.42;;;;;;;;;;5527415;26;20004;-76
2024/04/13 12:32:43;;;;;;;6.80;2.13;;;;;;;;;;5529001;25;20149;-74
2024/04/13 12:35:10;;;;;;;4.40;2.05;;;;;;;;;;5537348;25;19994;-77
2024/04/13 12:37:36;;;;;;;3.90;2.33;;;;;;;;;;5543406;26;20004;-77
2024/04/13 12:40:02;;;;;;;3.08;1.60;;;;;;;;;;5522632;25;20006;-77
2024/04/13 12:42:28;;;;;;;4.28;1.88;;;;;;;;;;5495736;26;20005;-77
2024/04/13 12:44:54;;;;;;;3.80;1.50;;;;;;;;;;5525520;25;20009;-74
2024/04/13 12:47:20;;;;;;;7.70;2.15;;;;;;;;;;5529609;25;19997;-75
2024/04/13 12:49:46;;;;;;;5.25;1.35;;;;;;;;;;5527764;25;20317;-75
2024/04/13 12:52:12;;;;;;;3.20;1.48;;;;;;;;;;5489646;26;20017;-75
2024/04/13 12:54:40;;;;;;;5.10;1.75;;;;;;;;;;5492492;26;20322;-75
2024/04/13 12:57:06;;;;;;;2.40;1.52;;;;;;;;;;5492613;26;20108;-73
2024/04/13 12:59:32;;;;;;;4.05;1.10;;;;;;;;;;5526325;25;20152;-74
2024/04/13 13:01:58;;;;;;;4.55;1.52;;;;;;;;;;5524029;26;20001;-75
2024/04/13 13:04:24;;;;;;;6.47;1.65;;;;;;;;;;5527612;26;20113;-75
2024/04/13 13:06:50;;;;;;;3.72;1.52;;;;;;;;;;5522937;25;20028;-75
2024/04/13 13:09:16;;;;;;;1.80;1.13;;;;;;;;;;5527635;25;19998;-73
2024/04/13 13:11:42;;;;;;;2.75;1.17;;;;;;;;;;5527561;26;20332;-76
2024/04/13 13:14:08;;;;;;;2.25;0.90;;;;;;;;;;5527440;26;20013;-74
2024/04/13 13:16:34;;;;;;;5.47;1.65;;;;;;;;;;5525447;25;20011;-74
2024/04/13 13:19:00;;;;;;;3.92;1.10;;;;;;;;;;5525632;25;20384;-74
2024/04/13 13:21:26;;;;;;;3.22;0.85;;;;;;;;;;5527625;26;20000;-75
2024/04/13 13:23:52;;;;;;;1.67;0.70;;;;;;;;;;5528369;26;20468;-75
2024/04/13 13:26:18;;;;;;;3.42;0.70;;;;;;;;;;5529847;25;19989;-75
2024/04/13 13:28:44;;;;;;;4.25;0.95;;;;;;;;;;5526338;25;20068;-74
2024/04/13 13:31:10;;;;;;;2.33;0.77;;;;;;;;;;5526606;25;20049;-75
2024/04/13 13:33:36;;;;;;;1.92;0.93;;;;;;;;;;5527143;25;19997;-75
2024/04/13 13:36:03;;;;;;;4.50;1.08;;;;;;;;;;5511134;26;20039;-73
2024/04/13 13:38:29;;;;;;;3.40;1.05;;;;;;;;;;5494204;26;19990;-74
2024/04/13 13:40:55;;;;;;;1.83;0.77;;;;;;;;;;5508539;26;20067;-75
2024/04/13 13:43:21;;;;;;;2.58;0.82;;;;;;;;;;5530231;26;20123;-75
2024/04/13 13:45:47;;;;;;;2.63;0.63;;;;;;;;;;5529150;25;19990;-75
2024/04/13 13:48:13;;;;;;;4.25;1.05;;;;;;;;;;5531221;25;19985;-74
2024/04/13 13:50:39;;;;;;;2.85;0.90;;;;;;;;;;5530042;25;20038;-75
2024/04/13 13:53:05;;;;;;;3.75;0.80;;;;;;;;;;5525997;25;19990;-76
2024/04/13 13:55:32;;;;;;;2.15;1.30;;;;;;;;;;5528761;26;20325;-73
2024/04/13 13:58:00;;;;;;;1.77;0.80;;;;;;;;;;5526460;25;20005;-75
2024/04/13 14:00:26;;;;;;;4.57;1.17;;;;;;;;;;5527456;25;19994;-75
2024/04/13 14:02:52;;;;;;;2.47;1.00;;;;;;;;;;5526895;26;19993;-74
2024/04/13 14:05:18;;;;;;;2.72;1.02;;;;;;;;;;5527221;26;19994;-76
2024/04/13 14:07:44;;;;;;;1.73;0.68;;;;;;;;;;5526687;26;20335;-75
2024/04/13 14:10:10;;;;;;;2.28;0.90;;;;;;;;;;5526091;25;20069;-73
2024/04/13 14:12:36;;;;;;;1.10;0.73;;;;;;;;;;5526210;25;20504;-74
2024/04/13 14:15:03;;;;;;;2.88;1.17;;;;;;;;;;5526439;26;20001;-75
2024/04/13 14:17:29;;;;;;;2.25;1.05;;;;;;;;;;5526501;25;19996;-74
2024/04/13 14:19:55;;;;;;;2.17;1.20;;;;;;;;;;5524897;25;20004;-74
2024/04/13 14:22:21;;;;;;;7.50;1.30;;;;;;;;;;5524684;25;19990;-74
2024/04/13 14:24:48;;;;;;;2.90;1.20;;;;;;;;;;5526505;26;20018;-74
2024/04/13 14:27:14;;;;;;;5.07;0.90;;;;;;;;;;5526272;25;20065;-75
2024/04/13 14:29:40;;;;;;;2.72;1.80;;;;;;;;;;5526836;25;20400;-74
2024/04/13 14:32:07;;;;;;;3.95;1.10;;;;;;;;;;5523381;26;20108;-74
2024/04/13 14:34:33;;;;;;;4.82;1.10;;;;;;;;;;5525807;25;20017;-75
2024/04/13 14:36:59;;;;;;;5.35;1.20;;;;;;;;;;5524133;26;19994;-74